Aviation Digital Data Service (ADDS)

Output produced by TAFs form (1204 UTC 23 August 2017)
found at http://aviationweather.gov/adds/tafs/
 
KVEL 231131Z 2312/2412 28003KT P6SM BKN150 
     FM231400 VRB03KT P6SM BKN150 
     FM232000 23007KT P6SM SCT110 
     FM240100 31006KT P6SM FEW110 SCT250